createdAt,value
2022-11-06T00:01:08.904Z,94.70
2022-11-06T00:03:40.178Z,94.70
2022-11-06T00:06:23.063Z,94.70
2022-11-06T00:08:53.633Z,94.70
2022-11-06T00:11:24.175Z,94.70
2022-11-06T00:13:55.323Z,95.00
2022-11-06T00:16:26.520Z,94.60
2022-11-06T00:18:57.046Z,94.50
2022-11-06T00:21:29.305Z,94.60
2022-11-06T00:24:03.686Z,94.70
2022-11-06T00:26:35.117Z,94.70
2022-11-06T00:29:06.821Z,94.70
2022-11-06T00:31:39.467Z,94.70
2022-11-06T00:34:10.588Z,94.70
2022-11-06T00:36:41.173Z,94.80
2022-11-06T00:39:13.618Z,94.80
2022-11-06T00:41:43.999Z,94.80
2022-11-06T00:44:14.734Z,94.80
2022-11-06T00:46:45.217Z,94.80
2022-11-06T00:49:15.803Z,94.70
2022-11-06T00:51:45.604Z,94.70
2022-11-06T00:54:17.236Z,94.80
2022-11-06T00:56:47.738Z,94.80
2022-11-06T00:59:18.536Z,94.70
2022-11-06T01:01:49.497Z,94.90
2022-11-06T01:04:23.569Z,94.90
2022-11-06T01:06:56.363Z,95.00
2022-11-06T01:09:29.790Z,95.10
2022-11-06T01:12:17.409Z,95.00
2022-11-06T01:14:48.221Z,95.00
2022-11-06T01:17:18.807Z,95.00
2022-11-06T01:19:49.038Z,94.80
2022-11-06T01:22:19.840Z,94.70
2022-11-06T01:24:50.467Z,94.70
2022-11-06T01:27:26.428Z,94.60
2022-11-06T01:29:58.964Z,94.50
2022-11-06T01:32:29.553Z,94.50
2022-11-06T01:34:59.777Z,94.50
2022-11-06T01:37:30.291Z,94.60
2022-11-06T01:40:00.043Z,94.30
2022-11-06T01:42:30.483Z,94.10
2022-11-06T01:45:13.886Z,93.80
2022-11-06T01:47:44.953Z,93.70
2022-11-06T01:50:17.566Z,93.70
2022-11-06T01:52:49.761Z,93.80
2022-11-06T01:55:27.804Z,93.90
2022-11-06T01:58:00.095Z,93.90
2022-11-06T02:00:33.116Z,93.70
2022-11-06T02:03:05.056Z,93.50
2022-11-06T02:05:35.752Z,93.10
2022-11-06T02:08:06.210Z,93.20
2022-11-06T02:10:36.956Z,92.90
2022-11-06T02:13:26.577Z,92.90
2022-11-06T02:16:20.257Z,92.90
2022-11-06T02:19:10.492Z,93.00
2022-11-06T02:22:12.145Z,92.80
2022-11-06T02:25:10.408Z,92.60
2022-11-06T02:27:42.221Z,92.40
2022-11-06T02:30:15.624Z,92.00
2022-11-06T02:33:09.162Z,92.10
2022-11-06T02:36:05.135Z,92.30
2022-11-06T02:38:43.464Z,92.40
2022-11-06T02:41:21.813Z,92.10
2022-11-06T02:43:57.259Z,92.10
2022-11-06T02:46:36.579Z,91.60
2022-11-06T02:49:11.814Z,91.40
2022-11-06T02:51:48.085Z,91.90
2022-11-06T02:54:20.715Z,91.90
2022-11-06T02:56:55.289Z,91.70
2022-11-06T02:59:30.500Z,91.70
2022-11-06T03:02:06.565Z,92.00
2022-11-06T03:04:46.273Z,91.90
2022-11-06T03:07:38.811Z,91.50
2022-11-06T03:10:10.948Z,91.20
2022-11-06T03:13:07.066Z,91.30
2022-11-06T03:15:51.009Z,90.80
2022-11-06T03:18:30.013Z,90.10
2022-11-06T03:21:08.396Z,90.10
2022-11-06T03:23:55.841Z,90.60
2022-11-06T03:26:35.971Z,90.30
2022-11-06T03:29:22.057Z,90.40
2022-11-06T03:32:07.007Z,90.50
2022-11-06T03:35:00.373Z,90.30
2022-11-06T03:37:38.636Z,90.10
2022-11-06T03:40:14.185Z,90.70
2022-11-06T03:42:45.291Z,90.40
2022-11-06T03:45:23.824Z,89.50
2022-11-06T03:48:13.122Z,89.80
2022-11-06T03:50:58.103Z,90.00
2022-11-06T03:53:36.733Z,90.00
2022-11-06T03:56:14.465Z,89.00
2022-11-06T03:58:49.098Z,88.90
2022-11-06T04:01:26.162Z,88.90
2022-11-06T04:04:09.284Z,88.40
2022-11-06T04:06:50.034Z,89.30
2022-11-06T04:09:37.212Z,87.40
2022-11-06T04:12:27.421Z,87.80
2022-11-06T04:14:58.480Z,88.60
2022-11-06T04:17:31.981Z,87.70
2022-11-06T04:20:06.994Z,88.30
2022-11-06T04:23:08.710Z,87.50
2022-11-06T04:26:18.216Z,87.20
2022-11-06T04:29:10.765Z,85.60
2022-11-06T04:32:09.200Z,87.00
2022-11-06T04:35:05.579Z,86.40
2022-11-06T04:37:59.369Z,87.30
2022-11-06T04:40:39.705Z,86.70
2022-11-06T04:43:25.128Z,86.20
2022-11-06T04:45:58.313Z,87.30
2022-11-06T04:48:29.283Z,86.30
2022-11-06T04:51:05.319Z,85.90
2022-11-06T04:53:36.735Z,86.00
2022-11-06T04:56:17.501Z,85.40
2022-11-06T04:58:50.028Z,85.70
2022-11-06T05:01:21.120Z,85.40
2022-11-06T05:03:51.350Z,86.50
2022-11-06T05:06:23.501Z,84.90
2022-11-06T05:08:55.689Z,85.70
2022-11-06T05:11:26.229Z,85.30
2022-11-06T05:13:56.305Z,84.30
2022-11-06T05:16:25.624Z,84.80
2022-11-06T05:18:55.885Z,84.60
2022-11-06T05:21:41.677Z,82.40
2022-11-06T05:24:12.560Z,82.60
2022-11-06T05:26:45.543Z,83.50
2022-11-06T05:29:16.283Z,82.20
2022-11-06T05:31:46.249Z,80.90
2022-11-06T05:34:16.140Z,80.10
2022-11-06T05:36:46.980Z,81.10
2022-11-06T05:39:16.916Z,80.50
2022-11-06T05:41:46.750Z,79.50
2022-11-06T05:44:16.841Z,81.20
2022-11-06T05:46:49.195Z,79.90
2022-11-06T05:49:20.399Z,79.80
2022-11-06T05:51:50.504Z,78.70
2022-11-06T05:54:19.655Z,78.80
2022-11-06T05:56:49.633Z,77.90
2022-11-06T05:59:19.488Z,79.10
2022-11-06T06:01:49.463Z,79.50
2022-11-06T06:04:19.217Z,80.00
2022-11-06T06:06:49.251Z,80.50
2022-11-06T06:09:18.789Z,79.30
2022-11-06T06:11:48.705Z,78.10
2022-11-06T06:14:18.737Z,78.50
2022-11-06T06:16:48.137Z,77.80
2022-11-06T06:19:18.104Z,77.70
2022-11-06T06:21:47.994Z,76.40
2022-11-06T06:24:18.044Z,76.60
2022-11-06T06:26:47.354Z,75.70
2022-11-06T06:29:18.336Z,76.70
2022-11-06T06:31:49.981Z,78.90
2022-11-06T06:34:20.014Z,80.00
2022-11-06T06:36:53.235Z,80.70
2022-11-06T06:39:23.529Z,79.10
2022-11-06T06:41:53.422Z,79.20
2022-11-06T06:44:23.780Z,79.40
2022-11-06T06:46:53.687Z,80.10
2022-11-06T06:49:23.606Z,79.70
2022-11-06T06:51:55.401Z,77.70
2022-11-06T06:54:25.345Z,79.70
2022-11-06T06:56:55.170Z,79.20
2022-11-06T06:59:25.041Z,77.90
2022-11-06T07:01:55.107Z,77.10
2022-11-06T07:04:24.478Z,77.60
2022-11-06T07:06:56.815Z,77.60
2022-11-06T07:09:26.820Z,75.20
2022-11-06T07:11:56.102Z,76.10
2022-11-06T07:14:26.041Z,76.60
2022-11-06T07:16:55.928Z,77.10
2022-11-06T07:19:25.962Z,77.30
2022-11-06T07:21:55.738Z,78.00
2022-11-06T07:24:25.684Z,77.10
2022-11-06T07:26:55.510Z,77.10
2022-11-06T07:29:25.392Z,76.80
2022-11-06T07:31:55.268Z,77.00
2022-11-06T07:34:25.106Z,77.40
2022-11-06T07:36:54.949Z,77.70
2022-11-06T07:39:24.861Z,77.60
2022-11-06T07:41:54.684Z,76.90
2022-11-06T07:44:24.570Z,76.10
2022-11-06T07:46:54.664Z,76.80
2022-11-06T07:49:23.895Z,74.70
2022-11-06T07:51:53.814Z,75.60
2022-11-06T07:54:23.747Z,75.90
2022-11-06T07:56:53.665Z,76.70
2022-11-06T07:59:23.589Z,75.00
2022-11-06T08:01:53.649Z,76.10
2022-11-06T08:04:23.027Z,75.80
2022-11-06T08:06:52.942Z,76.00
2022-11-06T08:09:23.508Z,75.70
2022-11-06T08:11:53.528Z,76.00
2022-11-06T08:14:22.982Z,76.40
2022-11-06T08:16:52.943Z,76.20
2022-11-06T08:19:23.328Z,75.80
2022-11-06T08:21:53.757Z,76.40
2022-11-06T08:24:24.281Z,76.90
2022-11-06T08:26:54.657Z,78.20
2022-11-06T08:29:25.104Z,79.30
2022-11-06T08:31:58.834Z,78.80
2022-11-06T08:34:29.289Z,78.70
2022-11-06T08:36:59.657Z,79.00
2022-11-06T08:39:30.080Z,79.20
2022-11-06T08:42:00.501Z,79.60
2022-11-06T08:44:30.882Z,79.70
2022-11-06T08:47:01.341Z,79.80
2022-11-06T08:49:31.728Z,80.20
2022-11-06T08:52:02.083Z,80.30
2022-11-06T08:54:32.772Z,80.30
2022-11-06T08:57:04.110Z,80.90
2022-11-06T08:59:35.307Z,80.10
2022-11-06T09:02:05.764Z,80.30
2022-11-06T09:04:41.081Z,79.70
2022-11-06T09:07:11.796Z,80.00
2022-11-06T09:09:42.295Z,80.40
2022-11-06T09:12:12.729Z,80.80
2022-11-06T09:14:43.286Z,80.00
2022-11-06T09:17:13.690Z,80.30
2022-11-06T09:19:44.115Z,81.30
2022-11-06T09:22:14.506Z,80.10
2022-11-06T09:25:02.423Z,79.80
2022-11-06T09:27:34.465Z,81.10
2022-11-06T09:30:05.093Z,81.10
2022-11-06T09:32:35.325Z,81.20
2022-11-06T09:35:05.662Z,81.70
2022-11-06T09:37:35.970Z,81.00
2022-11-06T09:40:06.984Z,81.40
2022-11-06T09:43:01.345Z,81.30
2022-11-06T09:45:35.077Z,82.60
2022-11-06T09:48:20.301Z,82.10
2022-11-06T09:50:59.266Z,82.40
2022-11-06T09:53:57.597Z,82.40
2022-11-06T09:56:33.686Z,82.20
2022-11-06T09:59:08.170Z,81.80
2022-11-06T10:01:53.260Z,82.40
2022-11-06T10:04:43.353Z,81.80
2022-11-06T10:07:30.801Z,82.50
2022-11-06T10:10:01.575Z,83.40
2022-11-06T10:13:00.302Z,83.30
2022-11-06T10:15:45.790Z,84.20
2022-11-06T10:18:31.714Z,83.90
2022-11-06T10:21:17.977Z,83.80
2022-11-06T10:24:10.547Z,84.60
2022-11-06T10:26:44.466Z,84.60
2022-11-06T10:29:51.217Z,85.00
2022-11-06T10:32:51.635Z,85.00
2022-11-06T10:35:51.855Z,85.40
2022-11-06T10:38:24.906Z,85.10
2022-11-06T10:40:57.593Z,84.80
2022-11-06T10:43:37.493Z,85.10
2022-11-06T10:46:27.740Z,85.00
2022-11-06T10:49:01.484Z,84.90
2022-11-06T10:52:00.104Z,84.80
2022-11-06T10:54:50.527Z,84.80
2022-11-06T10:57:46.699Z,84.80
2022-11-06T11:00:18.533Z,85.70
2022-11-06T11:02:57.632Z,85.20
2022-11-06T11:05:29.855Z,85.60
2022-11-06T11:08:00.235Z,86.10
2022-11-06T11:10:35.217Z,86.50
2022-11-06T11:13:09.150Z,86.20
2022-11-06T11:15:49.297Z,86.00
2022-11-06T11:18:26.200Z,86.40
2022-11-06T11:21:17.051Z,88.20
2022-11-06T11:23:48.546Z,87.10
2022-11-06T11:26:26.289Z,87.10
2022-11-06T11:29:02.353Z,86.80
2022-11-06T11:31:36.690Z,87.30
2022-11-06T11:34:17.727Z,87.20
2022-11-06T11:36:55.290Z,87.60
2022-11-06T11:39:31.849Z,88.50
2022-11-06T11:42:27.737Z,88.10
2022-11-06T11:45:20.473Z,88.50
2022-11-06T11:47:53.760Z,89.60
2022-11-06T11:50:35.137Z,89.30
2022-11-06T11:53:20.998Z,89.10
2022-11-06T11:55:54.967Z,89.20
2022-11-06T11:58:30.541Z,90.10
2022-11-06T12:01:07.112Z,90.10
2022-11-06T12:03:44.688Z,90.20
2022-11-06T12:06:20.677Z,90.30
2022-11-06T12:08:56.235Z,90.50
2022-11-06T12:11:31.397Z,90.50
2022-11-06T12:14:20.292Z,90.70
2022-11-06T12:16:56.633Z,90.70
2022-11-06T12:19:30.099Z,90.80
2022-11-06T12:22:06.148Z,90.90
2022-11-06T12:25:07.831Z,90.60
2022-11-06T12:27:46.261Z,90.50
2022-11-06T12:30:20.052Z,90.80
2022-11-06T12:33:05.861Z,90.40
2022-11-06T12:35:51.004Z,90.40
2022-11-06T12:38:44.601Z,90.40
2022-11-06T12:41:41.922Z,90.60
2022-11-06T12:44:15.199Z,90.70
2022-11-06T12:47:21.538Z,90.60
2022-11-06T12:50:17.372Z,90.70
2022-11-06T12:53:09.494Z,90.70
2022-11-06T12:55:46.382Z,90.80
2022-11-06T12:58:49.426Z,90.60
2022-11-06T13:01:34.350Z,90.90
2022-11-06T13:04:30.055Z,91.00
2022-11-06T13:07:30.412Z,90.90
2022-11-06T13:10:10.478Z,91.00
2022-11-06T13:13:00.643Z,90.80
2022-11-06T13:15:47.072Z,91.00
2022-11-06T13:18:38.976Z,91.00
2022-11-06T13:21:23.169Z,91.40
2022-11-06T13:24:01.068Z,91.50
2022-11-06T13:26:42.136Z,91.50
2022-11-06T13:29:16.775Z,91.70
2022-11-06T13:32:07.545Z,92.00
2022-11-06T13:34:42.075Z,92.50
2022-11-06T13:37:20.712Z,92.60
2022-11-06T13:39:58.847Z,92.70
2022-11-06T13:42:35.821Z,92.90
2022-11-06T13:45:09.550Z,93.10
2022-11-06T13:48:06.329Z,93.30
2022-11-06T13:50:49.224Z,93.50
2022-11-06T13:53:56.809Z,93.90
2022-11-06T13:57:04.731Z,93.90
2022-11-06T13:59:58.485Z,94.00
2022-11-06T14:03:07.618Z,94.00
2022-11-06T14:06:04.228Z,94.40
2022-11-06T14:08:50.578Z,94.40
2022-11-06T14:11:37.385Z,94.90
2022-11-06T14:14:16.411Z,95.10
2022-11-06T14:16:46.857Z,95.10
2022-11-06T14:19:29.118Z,95.20
2022-11-06T14:22:34.098Z,95.10
2022-11-06T14:25:23.893Z,95.20
2022-11-06T14:28:09.767Z,95.30
2022-11-06T14:31:10.937Z,95.60
2022-11-06T14:34:01.293Z,95.70
2022-11-06T14:36:37.957Z,95.70
2022-11-06T14:39:15.759Z,95.80
2022-11-06T14:41:57.583Z,95.70
2022-11-06T14:44:33.564Z,95.80
2022-11-06T14:47:08.043Z,96.00
2022-11-06T14:49:44.145Z,95.70
2022-11-06T14:52:17.839Z,95.70
2022-11-06T14:55:07.325Z,95.70
2022-11-06T14:57:50.996Z,95.90
2022-11-06T15:00:56.905Z,95.70
2022-11-06T15:03:35.768Z,95.70
2022-11-06T15:06:30.489Z,95.70
2022-11-06T15:09:11.122Z,95.60
2022-11-06T15:12:02.433Z,95.70
2022-11-06T15:14:56.311Z,95.30
2022-11-06T15:17:28.791Z,95.20
2022-11-06T15:20:10.985Z,95.10
2022-11-06T15:22:52.802Z,95.20
2022-11-06T15:25:26.709Z,95.10
2022-11-06T15:28:08.186Z,95.30
2022-11-06T15:30:56.847Z,95.20
2022-11-06T15:33:45.255Z,95.50
2022-11-06T15:36:18.456Z,95.20
2022-11-06T15:38:48.817Z,95.30
2022-11-06T15:41:26.066Z,95.50
2022-11-06T15:43:58.225Z,95.40
2022-11-06T15:46:31.196Z,95.60
2022-11-06T15:49:22.476Z,95.70
2022-11-06T15:52:01.546Z,95.70
2022-11-06T15:54:44.286Z,95.50
2022-11-06T15:57:25.329Z,95.40
2022-11-06T16:00:11.530Z,95.20
2022-11-06T16:03:11.272Z,95.20
2022-11-06T16:05:42.087Z,95.20
2022-11-06T16:08:17.296Z,95.20
2022-11-06T16:10:50.572Z,95.30
2022-11-06T16:13:24.344Z,95.10
2022-11-06T16:16:03.778Z,95.30
2022-11-06T16:18:51.460Z,95.30
2022-11-06T16:21:33.760Z,95.30
2022-11-06T16:24:19.904Z,95.40
2022-11-06T16:26:53.456Z,95.40
2022-11-06T16:29:27.756Z,95.40
2022-11-06T16:32:20.324Z,95.40
2022-11-06T16:34:52.147Z,95.40
2022-11-06T16:37:40.345Z,95.50
2022-11-06T16:40:43.127Z,95.60
2022-11-06T16:43:24.699Z,95.80
2022-11-06T16:46:00.555Z,95.80
2022-11-06T16:48:37.583Z,95.80
2022-11-06T16:51:12.019Z,95.90
2022-11-06T16:53:59.788Z,95.90
2022-11-06T16:56:34.733Z,96.20
2022-11-06T16:59:11.359Z,96.20
2022-11-06T17:01:46.652Z,96.40
2022-11-06T17:04:24.937Z,96.40
2022-11-06T17:06:56.304Z,96.60
2022-11-06T17:09:35.609Z,96.60
2022-11-06T17:12:06.777Z,96.50
2022-11-06T17:14:37.070Z,96.50
2022-11-06T17:17:07.019Z,96.50
2022-11-06T17:19:37.352Z,96.50
2022-11-06T17:22:12.133Z,96.50
2022-11-06T17:24:42.716Z,96.50
2022-11-06T17:27:13.098Z,96.60
2022-11-06T17:29:42.799Z,96.70
2022-11-06T17:32:13.129Z,96.80
2022-11-06T17:34:42.868Z,96.80
2022-11-06T17:37:14.148Z,96.80
2022-11-06T17:39:44.534Z,96.70
2022-11-06T17:42:14.251Z,96.80
2022-11-06T17:44:44.697Z,96.90
2022-11-06T17:47:14.484Z,96.90
2022-11-06T17:49:44.806Z,96.90
2022-11-06T17:52:15.342Z,96.90
2022-11-06T17:54:45.667Z,96.90
2022-11-06T17:57:22.809Z,96.80
2022-11-06T17:59:54.354Z,96.70
2022-11-06T18:02:47.603Z,96.70
2022-11-06T18:05:14.373Z,96.80
2022-11-06T18:07:44.035Z,96.90
2022-11-06T18:10:14.356Z,97.00
2022-11-06T18:12:44.644Z,96.90
2022-11-06T18:15:15.068Z,96.90
2022-11-06T18:17:45.028Z,96.90
2022-11-06T18:20:16.406Z,96.90
2022-11-06T18:22:46.681Z,96.90
2022-11-06T18:25:17.190Z,96.90
2022-11-06T18:27:46.853Z,96.90
2022-11-06T18:30:17.242Z,96.80
2022-11-06T18:32:47.581Z,96.80
2022-11-06T18:35:17.947Z,96.70
2022-11-06T18:37:48.257Z,96.70
2022-11-06T18:40:18.692Z,96.60
2022-11-06T18:42:48.401Z,96.50
2022-11-06T18:45:18.701Z,96.60
2022-11-06T18:47:49.084Z,96.60
2022-11-06T18:50:18.932Z,96.70
2022-11-06T18:52:58.066Z,96.70
2022-11-06T18:55:28.878Z,96.90
2022-11-06T18:57:58.740Z,96.90
2022-11-06T19:00:29.413Z,96.90
2022-11-06T19:02:59.801Z,96.90
2022-11-06T19:05:29.677Z,96.90
2022-11-06T19:08:00.633Z,96.80
2022-11-06T19:10:33.215Z,96.80
2022-11-06T19:13:03.651Z,96.80
2022-11-06T19:15:33.358Z,96.80
2022-11-06T19:18:03.724Z,96.80
2022-11-06T19:20:34.139Z,96.80
2022-11-06T19:23:03.949Z,96.80
2022-11-06T19:25:34.272Z,96.80
2022-11-06T19:28:05.192Z,96.70
2022-11-06T19:30:35.542Z,96.70
2022-11-06T19:33:06.385Z,96.80
2022-11-06T19:35:37.304Z,96.80
2022-11-06T19:38:08.064Z,96.70
2022-11-06T19:40:38.500Z,96.70
2022-11-06T19:43:10.418Z,96.80
2022-11-06T19:45:40.775Z,96.80
2022-11-06T19:48:11.167Z,96.80
2022-11-06T19:50:58.861Z,96.80
2022-11-06T19:53:30.553Z,96.80
2022-11-06T19:56:01.073Z,96.70
2022-11-06T19:58:30.809Z,96.80
2022-11-06T20:01:01.409Z,96.90
2022-11-06T20:03:31.829Z,97.00
2022-11-06T20:06:07.367Z,96.90
2022-11-06T20:08:40.603Z,96.70
2022-11-06T20:11:15.897Z,96.70
2022-11-06T20:13:47.527Z,96.70
2022-11-06T20:16:22.122Z,96.60
2022-11-06T20:18:56.058Z,96.50
2022-11-06T20:21:30.111Z,96.50
2022-11-06T20:24:00.568Z,96.60
2022-11-06T20:26:30.463Z,96.50
2022-11-06T20:29:01.137Z,96.50
2022-11-06T20:31:31.570Z,96.50
2022-11-06T20:34:01.976Z,96.50
2022-11-06T20:36:32.910Z,96.60
2022-11-06T20:39:05.108Z,96.70
2022-11-06T20:41:35.498Z,96.60
2022-11-06T20:44:06.258Z,96.60
2022-11-06T20:46:36.741Z,96.50
2022-11-06T20:49:06.618Z,96.50
2022-11-06T20:52:00.017Z,96.70
2022-11-06T20:54:27.530Z,96.70
2022-11-06T20:56:57.224Z,96.70
2022-11-06T20:59:28.003Z,96.70
2022-11-06T21:01:58.704Z,96.70
2022-11-06T21:04:29.152Z,96.70
2022-11-06T21:06:59.593Z,96.70
2022-11-06T21:09:29.931Z,96.70
2022-11-06T21:12:00.533Z,96.80
2022-11-06T21:14:31.276Z,96.90
2022-11-06T21:17:01.379Z,97.00
2022-11-06T21:19:32.318Z,97.00
2022-11-06T21:22:03.075Z,97.00
2022-11-06T21:24:33.472Z,97.00
2022-11-06T21:27:03.919Z,97.00
2022-11-06T21:29:33.955Z,97.00
2022-11-06T21:32:04.295Z,97.10
2022-11-06T21:34:34.701Z,97.10
2022-11-06T21:37:05.016Z,97.00
2022-11-06T21:39:36.716Z,96.90
2022-11-06T21:42:08.243Z,96.80
2022-11-06T21:44:38.711Z,96.90
2022-11-06T21:47:08.455Z,96.80
2022-11-06T21:49:39.029Z,96.90
2022-11-06T21:52:25.119Z,96.90
2022-11-06T21:55:11.344Z,96.80
2022-11-06T21:57:41.662Z,96.90
2022-11-06T22:00:14.379Z,96.80
2022-11-06T22:02:45.302Z,96.70
2022-11-06T22:05:15.909Z,96.60
2022-11-06T22:07:45.646Z,96.50
2022-11-06T22:10:16.811Z,96.60
2022-11-06T22:12:47.203Z,96.50
2022-11-06T22:15:18.380Z,96.40
2022-11-06T22:17:48.755Z,96.50
2022-11-06T22:20:19.319Z,96.50
2022-11-06T22:22:49.961Z,96.60
2022-11-06T22:25:20.657Z,96.80
2022-11-06T22:27:51.132Z,96.80
2022-11-06T22:30:22.129Z,96.90
2022-11-06T22:32:52.556Z,97.00
2022-11-06T22:35:23.094Z,96.80
2022-11-06T22:37:52.838Z,96.90
2022-11-06T22:40:23.234Z,96.90
2022-11-06T22:42:53.593Z,96.60
2022-11-06T22:45:23.979Z,96.30
2022-11-06T22:47:54.673Z,96.10
2022-11-06T22:50:24.998Z,96.00
2022-11-06T22:52:55.413Z,96.10
2022-11-06T22:55:25.152Z,96.20
2022-11-06T22:57:55.505Z,96.20
2022-11-06T23:00:26.435Z,96.10
2022-11-06T23:02:56.834Z,96.00
2022-11-06T23:05:27.287Z,95.90
2022-11-06T23:07:58.324Z,95.90
2022-11-06T23:10:31.907Z,95.90
2022-11-06T23:13:02.248Z,95.70
2022-11-06T23:15:33.803Z,95.80
2022-11-06T23:18:04.648Z,95.70
2022-11-06T23:20:36.829Z,95.70
2022-11-06T23:23:07.668Z,95.80
2022-11-06T23:25:38.169Z,95.80
2022-11-06T23:28:08.801Z,95.90
2022-11-06T23:30:39.113Z,95.90
2022-11-06T23:33:09.462Z,96.00
2022-11-06T23:35:40.186Z,96.10
2022-11-06T23:38:10.587Z,96.20
2022-11-06T23:40:40.919Z,96.20
2022-11-06T23:43:11.453Z,96.20
2022-11-06T23:45:57.052Z,96.20
2022-11-06T23:48:27.536Z,96.10
2022-11-06T23:50:58.005Z,96.10
2022-11-06T23:53:27.760Z,96.10
2022-11-06T23:55:58.740Z,96.30
2022-11-06T23:58:29.309Z,96.00
